Time;durP1;ratioP1;P1;durP2;ratioP2;P2;SDS_P1;SDS_P2;PMS_P1;PMS_P2;Temp;Humidity;BMP_temperature;BMP_pressure;BME280_temperature;BME280_humidity;BME280_pressure;Samples;Min_cycle;Max_cycle;Signal;HPM_P1;HPM_P2
2021/09/15 00:01:36;;;;;;;3.95;1.10;;;;;;;;;;7392069;19;20498;-59
2021/09/15 00:04:04;;;;;;;2.95;1.00;;;;;;;;;;7392234;19;20029;-59
2021/09/15 00:06:31;;;;;;;1.33;0.75;;;;;;;;;;7390413;19;20015;-60
2021/09/15 00:08:58;;;;;;;1.75;0.90;;;;;;;;;;7392268;19;20010;-61
2021/09/15 00:11:26;;;;;;;1.45;0.90;;;;;;;;;;7392104;19;20006;-60
2021/09/15 00:13:53;;;;;;;1.73;0.85;;;;;;;;;;7390320;19;20015;-59
2021/09/15 00:16:21;;;;;;;1.63;0.80;;;;;;;;;;7389259;19;20498;-60
2021/09/15 00:18:48;;;;;;;2.95;1.00;;;;;;;;;;7391877;19;20049;-59
2021/09/15 00:21:15;;;;;;;4.07;1.08;;;;;;;;;;7391429;19;20039;-59
2021/09/15 00:23:43;;;;;;;2.25;0.82;;;;;;;;;;7391360;19;20026;-59
2021/09/15 00:26:10;;;;;;;3.85;1.15;;;;;;;;;;7389327;19;20007;-59
2021/09/15 00:28:37;;;;;;;2.63;1.20;;;;;;;;;;7391275;19;20010;-60
2021/09/15 00:31:05;;;;;;;2.53;0.90;;;;;;;;;;7391314;19;20015;-59
2021/09/15 00:33:32;;;;;;;4.22;1.38;;;;;;;;;;7390771;19;20015;-59
2021/09/15 00:35:59;;;;;;;4.65;1.10;;;;;;;;;;7390040;19;20210;-59
2021/09/15 00:38:27;;;;;;;11.38;1.48;;;;;;;;;;7391302;19;20034;-58
2021/09/15 00:40:56;;;;;;;4.38;1.30;;;;;;;;;;7388175;19;20070;-58
2021/09/15 00:43:23;;;;;;;6.80;1.40;;;;;;;;;;7389700;19;20074;-58
2021/09/15 00:45:52;;;;;;;4.72;1.30;;;;;;;;;;7391079;19;20479;-54
2021/09/15 00:48:21;;;;;;;7.22;1.33;;;;;;;;;;7391119;19;20479;-58
2021/09/15 00:50:49;;;;;;;4.55;1.23;;;;;;;;;;7389910;19;20499;-59
2021/09/15 00:53:19;;;;;;;3.28;1.40;;;;;;;;;;7395766;19;20014;-58
2021/09/15 00:55:47;;;;;;;5.20;1.20;;;;;;;;;;7389327;19;20017;-58
2021/09/15 00:58:16;;;;;;;7.88;1.58;;;;;;;;;;7390361;19;20019;-55
2021/09/15 01:00:47;;;;;;;6.80;1.67;;;;;;;;;;7388825;19;20070;-58
2021/09/15 01:03:14;;;;;;;6.07;1.23;;;;;;;;;;7390486;19;20090;-59
2021/09/15 01:05:43;;;;;;;3.15;1.10;;;;;;;;;;7390506;19;20019;-58
2021/09/15 01:08:12;;;;;;;7.60;1.40;;;;;;;;;;7388672;19;20019;-59
2021/09/15 01:10:41;;;;;;;7.40;1.20;;;;;;;;;;7387533;19;20011;-60
2021/09/15 01:13:20;;;;;;;6.30;1.35;;;;;;;;;;7389870;19;20023;-60
2021/09/15 01:16:22;;;;;;;;;;;;;;;;;;7384778;19;20015;-61
2021/09/15 01:19:16;;;;;;;4.22;0.88;;;;;;;;;;7389503;19;19915;-61
2021/09/15 01:22:04;;;;;;;6.22;1.60;;;;;;;;;;7387650;19;20010;-61
2021/09/15 01:24:51;;;;;;;7.82;1.40;;;;;;;;;;7389713;19;20018;-60
2021/09/15 01:27:53;;;;;;;10.82;1.30;;;;;;;;;;7387548;19;20021;-60
2021/09/15 01:30:26;;;;;;;7.70;1.10;;;;;;;;;;7390270;19;20022;-61
2021/09/15 01:32:54;;;;;;;5.80;1.08;;;;;;;;;;7390291;19;20014;-59
2021/09/15 01:35:23;;;;;;;4.72;0.88;;;;;;;;;;7387167;19;20017;-60
2021/09/15 01:37:51;;;;;;;6.60;1.40;;;;;;;;;;7389126;19;20609;-60
2021/09/15 01:40:36;;;;;;;9.48;1.10;;;;;;;;;;7387101;19;20014;-61
2021/09/15 01:43:04;;;;;;;5.25;1.00;;;;;;;;;;7387078;19;20021;-60
2021/09/15 01:45:32;;;;;;;2.95;0.90;;;;;;;;;;7388542;19;20018;-60
2021/09/15 01:48:03;;;;;;;5.35;1.13;;;;;;;;;;7387168;19;20512;-61
2021/09/15 01:50:32;;;;;;;4.28;1.00;;;;;;;;;;7387123;19;20019;-60
2021/09/15 01:53:00;;;;;;;4.50;0.98;;;;;;;;;;7392082;19;20014;-61
2021/09/15 01:55:30;;;;;;;4.13;0.80;;;;;;;;;;7386888;19;20014;-60
2021/09/15 01:58:16;;;;;;;4.55;0.95;;;;;;;;;;7389409;19;20024;-60
2021/09/15 02:01:07;;;;;;;6.03;1.45;;;;;;;;;;7387309;19;20479;-60
2021/09/15 02:03:53;;;;;;;13.65;1.48;;;;;;;;;;7392282;19;20014;-60
2021/09/15 02:06:54;;;;;;;7.10;1.15;;;;;;;;;;7386332;19;20015;-61
2021/09/15 02:09:45;;;;;;;5.50;0.90;;;;;;;;;;7385890;19;20078;-59
2021/09/15 02:12:21;;;;;;;7.00;1.10;;;;;;;;;;7387472;19;20509;-60
2021/09/15 02:14:48;;;;;;;6.97;1.20;;;;;;;;;;7388640;19;20011;-61
2021/09/15 02:17:17;;;;;;;3.55;0.90;;;;;;;;;;7387837;19;20522;-60
2021/09/15 02:19:49;;;;;;;4.07;0.90;;;;;;;;;;7393925;19;20094;-60
2021/09/15 02:22:21;;;;;;;7.13;1.27;;;;;;;;;;7395615;19;20002;-59
2021/09/15 02:25:17;;;;;;;5.80;1.38;;;;;;;;;;7394574;19;20371;-60
2021/09/15 02:28:07;;;;;;;4.05;0.60;;;;;;;;;;7396030;19;20025;-60
2021/09/15 02:31:01;;;;;;;8.65;1.13;;;;;;;;;;7393599;19;20070;-60
2021/09/15 02:33:49;;;;;;;6.07;1.23;;;;;;;;;;7394649;19;20014;-59
2021/09/15 02:36:23;;;;;;;9.88;2.92;;;;;;;;;;7392002;19;20021;-60
2021/09/15 02:39:03;;;;;;;4.97;0.60;;;;;;;;;;7393059;19;20499;-60
2021/09/15 02:41:50;;;;;;;6.20;1.08;;;;;;;;;;7394002;19;20014;-60
2021/09/15 02:44:43;;;;;;;4.80;0.90;;;;;;;;;;7394887;19;20010;-61
2021/09/15 02:47:20;;;;;;;7.13;0.90;;;;;;;;;;7397452;19;20011;-60
2021/09/15 02:50:14;;;;;;;8.70;3.17;;;;;;;;;;7393492;19;20015;-60
2021/09/15 02:52:52;;;;;;;1.75;0.90;;;;;;;;;;7396185;19;20011;-59
2021/09/15 02:55:39;;;;;;;2.45;1.05;;;;;;;;;;7392427;19;20015;-62
2021/09/15 02:58:24;;;;;;;28.35;12.88;;;;;;;;;;7394542;19;20021;-60
2021/09/15 03:01:02;;;;;;;4.57;1.23;;;;;;;;;;7393805;19;20080;-60
2021/09/15 03:03:48;;;;;;;3.58;1.08;;;;;;;;;;7394477;19;20046;-61
2021/09/15 03:06:37;;;;;;;6.30;1.10;;;;;;;;;;7394840;19;20773;-60
2021/09/15 03:09:09;;;;;;;6.65;0.90;;;;;;;;;;7392754;19;20015;-61
2021/09/15 03:11:36;;;;;;;5.18;1.50;;;;;;;;;;7393940;19;20007;-61
2021/09/15 03:14:04;;;;;;;6.55;1.08;;;;;;;;;;7391984;19;20011;-61
2021/09/15 03:16:32;;;;;;;3.90;0.73;;;;;;;;;;7391174;19;20022;-59
2021/09/15 03:19:04;;;;;;;8.75;1.17;;;;;;;;;;7392259;19;20048;-61
2021/09/15 03:21:36;;;;;;;3.92;0.75;;;;;;;;;;7392185;19;20026;-60
2021/09/15 03:24:04;;;;;;;3.67;0.80;;;;;;;;;;7392271;19;20011;-60
2021/09/15 03:26:31;;;;;;;48.78;20.77;;;;;;;;;;7395502;19;20014;-62
2021/09/15 03:28:59;;;;;;;9.13;3.05;;;;;;;;;;7390376;19;20342;-60
2021/09/15 03:31:28;;;;;;;7.07;1.23;;;;;;;;;;7393624;19;20467;-60
2021/09/15 03:33:56;;;;;;;3.45;0.95;;;;;;;;;;7391767;19;20010;-61
2021/09/15 03:36:23;;;;;;;4.72;1.13;;;;;;;;;;7390570;19;20034;-61
2021/09/15 03:38:51;;;;;;;6.68;1.30;;;;;;;;;;7391224;19;20015;-61
2021/09/15 03:41:19;;;;;;;7.43;1.05;;;;;;;;;;7391497;19;20027;-60
2021/09/15 03:43:47;;;;;;;3.63;0.70;;;;;;;;;;7391123;19;20478;-62
2021/09/15 03:46:15;;;;;;;2.20;0.70;;;;;;;;;;7393135;19;20010;-60
2021/09/15 03:48:43;;;;;;;3.22;0.90;;;;;;;;;;7391548;19;20015;-60
2021/09/15 03:51:12;;;;;;;5.97;1.20;;;;;;;;;;7390780;19;20467;-61
2021/09/15 03:53:40;;;;;;;1.92;0.80;;;;;;;;;;7393282;19;20021;-61
2021/09/15 03:56:07;;;;;;;3.33;0.85;;;;;;;;;;7390280;19;20477;-60
2021/09/15 03:58:36;;;;;;;5.82;1.35;;;;;;;;;;7390864;19;20074;-61
2021/09/15 04:01:04;;;;;;;3.28;0.85;;;;;;;;;;7390478;19;20485;-60
2021/09/15 04:03:32;;;;;;;98.45;36.55;;;;;;;;;;7390053;19;20070;-61
2021/09/15 04:06:00;;;;;;;15.27;5.18;;;;;;;;;;7390746;19;20014;-62
2021/09/15 04:08:27;;;;;;;3.88;1.00;;;;;;;;;;7390676;19;20046;-60
2021/09/15 04:10:55;;;;;;;1.38;0.60;;;;;;;;;;7389662;19;20042;-59
2021/09/15 04:13:22;;;;;;;3.65;0.73;;;;;;;;;;7390629;19;20015;-61
2021/09/15 04:15:50;;;;;;;4.50;0.80;;;;;;;;;;7389748;19;20479;-60
2021/09/15 04:18:18;;;;;;;1.95;0.80;;;;;;;;;;7391913;19;20015;-61
2021/09/15 04:20:47;;;;;;;3.38;0.80;;;;;;;;;;7390585;19;20077;-60
2021/09/15 04:31:49;;;;;;;2.47;0.70;;;;;;;;;;7389960;19;20018;-61
2021/09/15 04:34:16;;;;;;;9.88;1.08;;;;;;;;;;7386103;19;20485;-60
2021/09/15 04:36:54;;;;;;;16.95;0.80;;;;;;;;;;7384150;19;20513;-62
2021/09/15 04:39:22;;;;;;;6.80;1.15;;;;;;;;;;7387845;19;20090;-61
2021/09/15 04:41:51;;;;;;;7.57;1.38;;;;;;;;;;7386402;19;20022;-62
2021/09/15 04:44:20;;;;;;;3.70;0.93;;;;;;;;;;7387723;19;20017;-61
2021/09/15 04:46:48;;;;;;;2.25;1.08;;;;;;;;;;7388116;19;20014;-61
2021/09/15 04:49:16;;;;;;;4.60;0.80;;;;;;;;;;7389917;19;20011;-61
2021/09/15 04:51:47;;;;;;;5.60;1.13;;;;;;;;;;7390037;19;20014;-60
2021/09/15 04:54:15;;;;;;;4.03;1.05;;;;;;;;;;7389739;19;20017;-61
2021/09/15 04:56:48;;;;;;;3.73;0.80;;;;;;;;;;7388504;19;20031;-61
2021/09/15 04:59:19;;;;;;;4.20;0.90;;;;;;;;;;7391000;19;20244;-60
2021/09/15 05:01:46;;;;;;;4.97;1.50;;;;;;;;;;7388774;19;20011;-60
2021/09/15 05:04:14;;;;;;;4.88;1.67;;;;;;;;;;7388562;19;20471;-60
2021/09/15 05:06:48;;;;;;;;;;;;;;;;;;7389783;19;20018;-61
2021/09/15 05:09:15;;;;;;;3.30;0.90;;;;;;;;;;7389924;19;19918;-61
2021/09/15 05:11:47;;;;;;;5.22;0.73;;;;;;;;;;7388128;19;20082;-59
2021/09/15 05:14:16;;;;;;;2.58;0.82;;;;;;;;;;7388099;19;20035;-60
2021/09/15 05:16:43;;;;;;;4.80;0.90;;;;;;;;;;7387611;19;20033;-59
2021/09/15 05:19:12;;;;;;;5.05;0.90;;;;;;;;;;7388409;19;20467;-59
2021/09/15 05:21:40;;;;;;;1.90;0.57;;;;;;;;;;7388776;19;20018;-59
2021/09/15 05:24:08;;;;;;;3.45;0.80;;;;;;;;;;7388483;19;20010;-58
2021/09/15 05:26:36;;;;;;;1.80;0.73;;;;;;;;;;7387114;19;20027;-51
2021/09/15 05:29:04;;;;;;;1.38;0.70;;;;;;;;;;7390135;19;20098;-57
2021/09/15 05:31:33;;;;;;;4.57;1.00;;;;;;;;;;7388231;19;20026;-60
2021/09/15 05:34:00;;;;;;;2.60;0.82;;;;;;;;;;7388386;19;20015;-59
2021/09/15 05:36:28;;;;;;;2.10;0.60;;;;;;;;;;7387802;19;20014;-60
2021/09/15 05:38:57;;;;;;;2.17;0.70;;;;;;;;;;7387845;19;20011;-60
2021/09/15 05:41:31;;;;;;;2.58;0.80;;;;;;;;;;7387224;19;20014;-61
2021/09/15 05:43:59;;;;;;;6.22;0.95;;;;;;;;;;7387830;19;20019;-61
2021/09/15 05:46:27;;;;;;;3.25;0.70;;;;;;;;;;7387531;19;20017;-61
2021/09/15 05:48:54;;;;;;;2.63;0.98;;;;;;;;;;7389049;19;20487;-61
2021/09/15 05:51:23;;;;;;;4.63;1.05;;;;;;;;;;7386714;19;20010;-61
2021/09/15 05:53:53;;;;;;;4.90;0.73;;;;;;;;;;7390291;19;20018;-61
2021/09/15 05:56:22;;;;;;;5.18;0.90;;;;;;;;;;7392533;19;20085;-61
2021/09/15 05:58:50;;;;;;;3.28;0.60;;;;;;;;;;7393699;19;20025;-61
2021/09/15 06:01:17;;;;;;;2.75;0.73;;;;;;;;;;7396057;19;20010;-61
2021/09/15 06:03:45;;;;;;;3.58;0.88;;;;;;;;;;7396239;19;20452;-61
2021/09/15 06:06:31;;;;;;;5.85;1.10;;;;;;;;;;7396623;19;20095;-61
2021/09/15 06:09:08;;;;;;;6.43;0.60;;;;;;;;;;7394536;19;20078;-60
2021/09/15 06:11:36;;;;;;;12.10;2.67;;;;;;;;;;7394834;19;20018;-60
2021/09/15 06:14:04;;;;;;;3.75;0.77;;;;;;;;;;7394440;19;20446;-60
2021/09/15 06:16:31;;;;;;;4.65;0.88;;;;;;;;;;7394027;19;20014;-60
2021/09/15 06:19:00;;;;;;;1.67;0.68;;;;;;;;;;7393746;19;20010;-61
2021/09/15 06:21:52;;;;;;;1.40;0.68;;;;;;;;;;7393789;19;20475;-61
2021/09/15 06:24:35;;;;;;;5.60;0.98;;;;;;;;;;7395008;19;20018;-61
2021/09/15 06:27:02;;;;;;;2.33;0.70;;;;;;;;;;7393128;19;20014;-59
2021/09/15 06:29:30;;;;;;;1.10;0.60;;;;;;;;;;7395680;19;20547;-58
2021/09/15 06:31:57;;;;;;;2.85;1.10;;;;;;;;;;7394896;19;20010;-60
2021/09/15 06:34:25;;;;;;;2.83;1.00;;;;;;;;;;7396208;19;20086;-56
2021/09/15 06:36:53;;;;;;;1.27;0.70;;;;;;;;;;7394732;19;20007;-53
2021/09/15 06:39:21;;;;;;;1.77;0.55;;;;;;;;;;7396062;19;20037;-59
2021/09/15 06:41:48;;;;;;;2.50;0.70;;;;;;;;;;7393511;19;20007;-60
2021/09/15 06:44:16;;;;;;;4.15;0.85;;;;;;;;;;7392670;19;20017;-60
2021/09/15 06:46:43;;;;;;;1.00;0.60;;;;;;;;;;7394693;19;20017;-60
2021/09/15 06:49:10;;;;;;;1.42;0.60;;;;;;;;;;7394665;19;20039;-60
2021/09/15 06:51:38;;;;;;;2.72;0.60;;;;;;;;;;7396299;19;20027;-60
2021/09/15 06:54:05;;;;;;;2.30;0.50;;;;;;;;;;7394368;19;20015;-59
2021/09/15 06:56:33;;;;;;;3.33;0.75;;;;;;;;;;7393624;19;20040;-60
2021/09/15 06:59:01;;;;;;;2.30;0.98;;;;;;;;;;7394598;19;20078;-59
2021/09/15 07:01:29;;;;;;;2.15;0.90;;;;;;;;;;7396507;19;20006;-61
2021/09/15 07:03:56;;;;;;;5.80;1.05;;;;;;;;;;7392701;19;20074;-61
2021/09/15 07:06:24;;;;;;;3.45;1.02;;;;;;;;;;7396868;19;20467;-61
2021/09/15 07:08:52;;;;;;;1.77;0.57;;;;;;;;;;7394782;19;20044;-60
2021/09/15 07:11:21;;;;;;;1.50;0.50;;;;;;;;;;7394154;19;20030;-60
2021/09/15 07:13:49;;;;;;;1.98;0.57;;;;;;;;;;7393981;19;20010;-61
2021/09/15 07:16:18;;;;;;;1.73;0.60;;;;;;;;;;7393902;19;20010;-61
2021/09/15 07:18:46;;;;;;;4.32;0.85;;;;;;;;;;7394005;19;20021;-60
2021/09/15 07:21:13;;;;;;;1.08;0.52;;;;;;;;;;7393723;19;20046;-61
2021/09/15 07:23:40;;;;;;;1.98;0.40;;;;;;;;;;7393689;19;20010;-61
2021/09/15 07:26:08;;;;;;;1.73;0.50;;;;;;;;;;7394423;19;20010;-61
2021/09/15 07:28:35;;;;;;;2.42;0.77;;;;;;;;;;7393591;19;20042;-60
2021/09/15 07:31:03;;;;;;;3.85;0.80;;;;;;;;;;7394541;19;20014;-60
2021/09/15 07:33:33;;;;;;;3.83;0.50;;;;;;;;;;7393235;19;20616;-62
2021/09/15 07:36:01;;;;;;;1.73;0.35;;;;;;;;;;7393776;19;20011;-61
2021/09/15 07:38:29;;;;;;;2.38;0.52;;;;;;;;;;7391053;19;20074;-61
2021/09/15 07:40:57;;;;;;;0.70;0.38;;;;;;;;;;7393619;19;20038;-62
2021/09/15 07:43:24;;;;;;;2.38;0.65;;;;;;;;;;7389493;19;20150;-61
2021/09/15 07:45:52;;;;;;;2.58;0.68;;;;;;;;;;7392846;19;20094;-60
2021/09/15 07:48:19;;;;;;;1.73;0.50;;;;;;;;;;7390671;19;20021;-60
2021/09/15 07:50:48;;;;;;;5.10;0.77;;;;;;;;;;7393012;19;20038;-59
2021/09/15 07:53:16;;;;;;;1.88;0.50;;;;;;;;;;7397375;19;20098;-60
2021/09/15 07:55:44;;;;;;;1.63;0.55;;;;;;;;;;7392631;19;20032;-59
2021/09/15 07:58:11;;;;;;;1.83;0.50;;;;;;;;;;7390996;19;20018;-58
2021/09/15 08:00:39;;;;;;;1.02;0.52;;;;;;;;;;7392799;19;20018;-59
2021/09/15 08:03:06;;;;;;;1.52;0.60;;;;;;;;;;7392109;19;20039;-59
2021/09/15 08:05:34;;;;;;;1.27;0.40;;;;;;;;;;7393109;19;20007;-59
2021/09/15 08:08:01;;;;;;;2.72;1.05;;;;;;;;;;7392023;19;20010;-58
2021/09/15 08:10:29;;;;;;;1.23;0.52;;;;;;;;;;7392388;19;20022;-59
2021/09/15 08:12:56;;;;;;;1.60;0.32;;;;;;;;;;7392853;19;20031;-59
2021/09/15 08:15:27;;;;;;;3.35;0.50;;;;;;;;;;7391377;19;20010;-60
2021/09/15 08:17:55;;;;;;;0.63;0.38;;;;;;;;;;7390608;19;20021;-61
2021/09/15 08:20:23;;;;;;;0.68;0.35;;;;;;;;;;7391712;19;20022;-63
2021/09/15 08:22:51;;;;;;;1.63;0.57;;;;;;;;;;7391614;19;20074;-63
2021/09/15 08:25:19;;;;;;;3.75;0.60;;;;;;;;;;7391143;19;20011;-62
2021/09/15 08:27:46;;;;;;;1.65;0.52;;;;;;;;;;7391841;19;20019;-63
2021/09/15 08:30:14;;;;;;;2.67;0.50;;;;;;;;;;7390675;19;20020;-62
2021/09/15 08:32:42;;;;;;;3.85;0.50;;;;;;;;;;7391658;19;20014;-61
2021/09/15 08:35:09;;;;;;;3.88;0.40;;;;;;;;;;7391973;19;20025;-64
2021/09/15 08:37:38;;;;;;;2.00;0.68;;;;;;;;;;7389119;19;20010;-61
2021/09/15 08:40:08;;;;;;;3.95;0.50;;;;;;;;;;7391374;19;20015;-64
2021/09/15 08:42:36;;;;;;;1.38;0.47;;;;;;;;;;7388654;19;20448;-62
2021/09/15 08:45:09;;;;;;;1.45;0.30;;;;;;;;;;7391180;19;20044;-62
2021/09/15 08:47:39;;;;;;;1.00;0.63;;;;;;;;;;7391073;19;20018;-61
2021/09/15 08:50:09;;;;;;;2.65;1.08;;;;;;;;;;7388707;19;20014;-65
2021/09/15 08:52:36;;;;;;;3.13;0.93;;;;;;;;;;7394447;19;20025;-62
2021/09/15 08:55:06;;;;;;;1.60;0.70;;;;;;;;;;7391132;19;20010;-63
2021/09/15 08:57:34;;;;;;;4.15;1.02;;;;;;;;;;7389748;19;20018;-65
2021/09/15 09:00:05;;;;;;;7.78;1.38;;;;;;;;;;7390702;19;20047;-62
2021/09/15 09:02:38;;;;;;;3.75;0.90;;;;;;;;;;7388000;19;20019;-61
2021/09/15 09:05:07;;;;;;;6.70;1.20;;;;;;;;;;7390214;19;20010;-61
2021/09/15 09:07:34;;;;;;;2.10;0.60;;;;;;;;;;7389902;19;20043;-62
2021/09/15 09:10:10;;;;;;;5.13;0.70;;;;;;;;;;7389848;19;20479;-65
2021/09/15 09:12:39;;;;;;;4.40;0.80;;;;;;;;;;7393787;19;20039;-62
2021/09/15 09:15:26;;;;;;;4.40;0.60;;;;;;;;;;7389621;19;20014;-65
2021/09/15 09:18:02;;;;;;;6.32;0.80;;;;;;;;;;7387140;19;20045;-62
2021/09/15 09:20:32;;;;;;;2.05;0.57;;;;;;;;;;7389675;19;20020;-61
2021/09/15 09:23:09;;;;;;;0.90;0.47;;;;;;;;;;7388159;19;20014;-62
2021/09/15 09:25:40;;;;;;;2.33;0.60;;;;;;;;;;7390289;19;20008;-64
2021/09/15 09:28:33;;;;;;;2.15;0.70;;;;;;;;;;7397714;19;20039;-62
2021/09/15 09:31:03;;;;;;;1.83;0.68;;;;;;;;;;7397607;19;20027;-62
2021/09/15 09:33:41;;;;;;;0.68;0.40;;;;;;;;;;7400744;19;20014;-63
2021/09/15 09:36:10;;;;;;;0.93;0.47;;;;;;;;;;7397857;19;20463;-63
2021/09/15 09:38:43;;;;;;;1.85;0.60;;;;;;;;;;7395026;19;20476;-62
2021/09/15 09:41:16;;;;;;;2.08;0.90;;;;;;;;;;7397173;19;20017;-62
2021/09/15 09:43:54;;;;;;;2.28;0.85;;;;;;;;;;7397649;19;20014;-63
2021/09/15 09:46:35;;;;;;;0.93;0.55;;;;;;;;;;7395670;19;20843;-62
2021/09/15 09:49:14;;;;;;;2.58;0.70;;;;;;;;;;7396282;19;20007;-62
2021/09/15 09:51:42;;;;;;;2.17;1.00;;;;;;;;;;7397348;19;20034;-64
2021/09/15 09:54:24;;;;;;;4.65;1.50;;;;;;;;;;7396176;19;20027;-66
2021/09/15 09:56:56;;;;;;;2.95;1.50;;;;;;;;;;7394855;19;20021;-63
2021/09/15 09:59:27;;;;;;;2.65;1.40;;;;;;;;;;7396802;19;20033;-63
2021/09/15 10:01:57;;;;;;;2.78;1.25;;;;;;;;;;7396325;19;20006;-63
2021/09/15 10:04:27;;;;;;;2.13;0.80;;;;;;;;;;7395197;19;20014;-62
2021/09/15 10:06:56;;;;;;;1.15;0.80;;;;;;;;;;7394728;19;20017;-62
2021/09/15 10:09:24;;;;;;;3.33;0.95;;;;;;;;;;7396362;19;20038;-65
2021/09/15 10:11:52;;;;;;;3.03;0.77;;;;;;;;;;7396489;19;20078;-65
2021/09/15 10:14:19;;;;;;;2.05;0.80;;;;;;;;;;7395565;19;20015;-63
2021/09/15 10:16:56;;;;;;;4.18;0.93;;;;;;;;;;7394365;19;20034;-64
2021/09/15 10:19:32;;;;;;;4.53;1.20;;;;;;;;;;7394189;19;20475;-65
2021/09/15 10:22:03;;;;;;;4.45;2.28;;;;;;;;;;7396117;19;20015;-64
2021/09/15 10:25:00;;;;;;;5.13;3.00;;;;;;;;;;7396196;19;20011;-66
2021/09/15 10:27:29;;;;;;;5.90;2.20;;;;;;;;;;7395841;19;20027;-62
2021/09/15 10:30:12;;;;;;;5.97;2.22;;;;;;;;;;7393725;19;20015;-62
2021/09/15 10:32:45;;;;;;;4.05;2.38;;;;;;;;;;7396502;19;20015;-65
2021/09/15 10:35:14;;;;;;;3.80;1.67;;;;;;;;;;7396089;19;20102;-62
2021/09/15 10:37:41;;;;;;;5.43;3.08;;;;;;;;;;7394219;19;20026;-61
2021/09/15 10:40:12;;;;;;;6.05;3.53;;;;;;;;;;7396114;19;20018;-62
2021/09/15 10:45:22;;;;;;;5.75;2.80;;;;;;;;;;7395683;19;20019;-63
2021/09/15 10:48:12;;;;;;;5.65;2.08;;;;;;;;;;7394181;19;20021;-63
2021/09/15 10:50:55;;;;;;;3.22;1.60;;;;;;;;;;7394340;19;20463;-60
2021/09/15 10:53:29;;;;;;;2.10;1.42;;;;;;;;;;7394566;19;20490;-61
2021/09/15 10:55:59;;;;;;;1.98;1.20;;;;;;;;;;7394806;19;20513;-61
2021/09/15 10:58:41;;;;;;;3.75;1.85;;;;;;;;;;7393106;19;20014;-61
2021/09/15 11:01:11;;;;;;;6.72;1.98;;;;;;;;;;7395461;19;20011;-61
2021/09/15 11:03:53;;;;;;;4.63;1.80;;;;;;;;;;7394918;19;20017;-61
2021/09/15 11:06:22;;;;;;;5.70;1.58;;;;;;;;;;7394170;19;20023;-61
2021/09/15 11:08:52;;;;;;;3.55;1.77;;;;;;;;;;7394581;19;20014;-61
2021/09/15 11:11:20;;;;;;;2.35;1.45;;;;;;;;;;7394592;19;20016;-62
2021/09/15 11:13:50;;;;;;;3.33;1.70;;;;;;;;;;7397379;19;20018;-61
2021/09/15 11:16:33;;;;;;;5.68;1.73;;;;;;;;;;7393829;19;20011;-61
2021/09/15 11:19:07;;;;;;;3.08;1.98;;;;;;;;;;7392335;19;20007;-62
2021/09/15 11:22:00;;;;;;;5.57;2.17;;;;;;;;;;7393628;19;20015;-62
2021/09/15 11:24:31;;;;;;;4.20;1.35;;;;;;;;;;7393826;19;20029;-64
2021/09/15 11:27:05;;;;;;;3.72;1.70;;;;;;;;;;7393660;19;20018;-64
2021/09/15 11:29:36;;;;;;;2.45;1.30;;;;;;;;;;7393886;19;20015;-62
2021/09/15 11:32:08;;;;;;;3.42;1.42;;;;;;;;;;7393634;19;20842;-63
2021/09/15 11:34:38;;;;;;;5.45;2.03;;;;;;;;;;7394798;19;20031;-64
2021/09/15 11:37:15;;;;;;;9.10;3.03;;;;;;;;;;7393706;19;20007;-64
2021/09/15 11:39:42;;;;;;;6.35;2.90;;;;;;;;;;7393549;19;20111;-64
2021/09/15 11:42:09;;;;;;;4.63;2.60;;;;;;;;;;7389429;19;20074;-63
2021/09/15 11:44:37;;;;;;;5.38;4.45;;;;;;;;;;7389457;19;20030;-64
2021/09/15 11:47:04;;;;;;;6.97;5.32;;;;;;;;;;7389670;19;20203;-63
2021/09/15 11:49:34;;;;;;;6.30;5.00;;;;;;;;;;7387025;19;20079;-62
2021/09/15 11:52:03;;;;;;;8.68;6.00;;;;;;;;;;7390534;19;20011;-62
2021/09/15 11:54:30;;;;;;;10.73;5.72;;;;;;;;;;7389546;19;20022;-62
2021/09/15 11:57:08;;;;;;;5.95;5.05;;;;;;;;;;7389341;19;20015;-61
2021/09/15 11:59:36;;;;;;;6.10;4.60;;;;;;;;;;7386861;19;20010;-64
2021/09/15 12:02:09;;;;;;;6.30;4.60;;;;;;;;;;7389063;19;20112;-64
2021/09/15 12:04:43;;;;;;;7.35;4.43;;;;;;;;;;7388630;19;20077;-63
2021/09/15 12:07:15;;;;;;;5.25;3.72;;;;;;;;;;7389171;19;20429;-62
2021/09/15 12:09:43;;;;;;;8.80;4.67;;;;;;;;;;7389284;19;20027;-62
2021/09/15 12:12:11;;;;;;;7.32;4.43;;;;;;;;;;7388472;19;20010;-64
2021/09/15 12:14:45;;;;;;;6.80;4.72;;;;;;;;;;7387003;19;20029;-64
2021/09/15 12:17:13;;;;;;;7.18;4.90;;;;;;;;;;7388395;19;20022;-65
2021/09/15 12:19:48;;;;;;;67.00;24.70;;;;;;;;;;7386563;19;20027;-62
2021/09/15 12:22:21;;;;;;;32.38;16.75;;;;;;;;;;7388468;19;20019;-65
2021/09/15 12:25:00;;;;;;;7.93;5.07;;;;;;;;;;7388424;19;20042;-65
2021/09/15 12:27:29;;;;;;;5.78;3.30;;;;;;;;;;7388133;19;20018;-65
2021/09/15 12:30:01;;;;;;;5.68;4.20;;;;;;;;;;7388017;19;20015;-61
2021/09/15 12:32:30;;;;;;;6.05;4.70;;;;;;;;;;7387638;19;20489;-65
2021/09/15 12:34:59;;;;;;;7.15;5.80;;;;;;;;;;7387822;19;20182;-63
2021/09/15 12:37:26;;;;;;;8.90;5.70;;;;;;;;;;7388348;19;20011;-64
2021/09/15 12:40:03;;;;;;;7.88;6.30;;;;;;;;;;7386325;19;20014;-65
2021/09/15 12:42:34;;;;;;;7.95;6.50;;;;;;;;;;7386815;19;20058;-65
2021/09/15 12:45:06;;;;;;;7.38;5.53;;;;;;;;;;7387160;19;20052;-64
2021/09/15 12:47:38;;;;;;;6.40;5.22;;;;;;;;;;7387913;19;20014;-65
2021/09/15 12:50:14;;;;;;;7.43;5.53;;;;;;;;;;7385421;19;20025;-66
2021/09/15 12:52:44;;;;;;;8.75;4.97;;;;;;;;;;7391583;19;20022;-64
2021/09/15 12:55:20;;;;;;;7.38;4.88;;;;;;;;;;7387208;19;20011;-64
2021/09/15 12:58:04;;;;;;;7.57;5.03;;;;;;;;;;7384336;19;20031;-67
2021/09/15 13:00:36;;;;;;;17.38;9.50;;;;;;;;;;7383844;19;20031;-61
2021/09/15 13:03:06;;;;;;;11.07;5.33;;;;;;;;;;7383055;19;20574;-62
2021/09/15 13:05:39;;;;;;;7.18;4.63;;;;;;;;;;7382656;19;20251;-59
2021/09/15 13:08:20;;;;;;;6.22;4.05;;;;;;;;;;7382865;19;20011;-61
2021/09/15 13:10:50;;;;;;;5.85;3.78;;;;;;;;;;7382779;19;20007;-61
2021/09/15 13:13:21;;;;;;;4.80;3.28;;;;;;;;;;7383463;19;20150;-60
2021/09/15 13:15:50;;;;;;;7.10;4.03;;;;;;;;;;7383108;19;20017;-61
2021/09/15 13:18:18;;;;;;;6.00;3.35;;;;;;;;;;7383122;19;20014;-61
2021/09/15 13:20:47;;;;;;;5.30;3.17;;;;;;;;;;7382376;19;20022;-60
2021/09/15 13:23:14;;;;;;;47.92;22.17;;;;;;;;;;7383052;19;20474;-62
2021/09/15 13:25:43;;;;;;;9.57;5.75;;;;;;;;;;7383641;19;20022;-62
2021/09/15 13:28:11;;;;;;;7.22;4.53;;;;;;;;;;7383106;19;20028;-61
2021/09/15 13:30:38;;;;;;;7.10;5.55;;;;;;;;;;7381992;19;20462;-60
2021/09/15 13:33:06;;;;;;;6.93;4.10;;;;;;;;;;7385393;19;20014;-61
2021/09/15 13:35:33;;;;;;;6.55;3.90;;;;;;;;;;7382182;19;20035;-62
2021/09/15 13:38:01;;;;;;;6.10;4.18;;;;;;;;;;7381541;19;20028;-60
2021/09/15 13:40:29;;;;;;;7.07;3.22;;;;;;;;;;7382688;19;20010;-61
2021/09/15 13:42:56;;;;;;;4.20;2.58;;;;;;;;;;7381817;19;20015;-61
2021/09/15 13:45:23;;;;;;;5.18;3.08;;;;;;;;;;7382835;19;20015;-61
2021/09/15 13:47:51;;;;;;;3.72;2.67;;;;;;;;;;7382107;19;20011;-61
2021/09/15 13:50:21;;;;;;;3.90;2.50;;;;;;;;;;7381187;19;20023;-61
2021/09/15 13:52:49;;;;;;;5.38;2.47;;;;;;;;;;7386063;19;20018;-63
2021/09/15 13:55:18;;;;;;;8.20;4.32;;;;;;;;;;7382192;19;20011;-62
2021/09/15 13:57:48;;;;;;;3.67;2.22;;;;;;;;;;7380900;19;20025;-61
2021/09/15 14:00:17;;;;;;;3.50;2.25;;;;;;;;;;7379665;19;20118;-61
2021/09/15 14:02:44;;;;;;;4.10;1.63;;;;;;;;;;7383248;19;20014;-61
2021/09/15 14:05:12;;;;;;;3.25;2.03;;;;;;;;;;7380431;19;20507;-61
2021/09/15 14:07:41;;;;;;;3.65;1.52;;;;;;;;;;7382581;19;20035;-62
2021/09/15 14:10:09;;;;;;;3.33;1.58;;;;;;;;;;7382255;19;20034;-61
2021/09/15 14:12:56;;;;;;;3.22;1.60;;;;;;;;;;7381713;19;20014;-60
2021/09/15 14:15:25;;;;;;;2.20;1.30;;;;;;;;;;7389815;19;20018;-61
2021/09/15 14:17:54;;;;;;;2.05;1.02;;;;;;;;;;7389321;19;20076;-62
2021/09/15 14:20:22;;;;;;;2.00;1.02;;;;;;;;;;7385640;19;20011;-60
2021/09/15 14:22:50;;;;;;;1.92;1.10;;;;;;;;;;7389374;19;20613;-63
2021/09/15 14:25:18;;;;;;;1.92;1.00;;;;;;;;;;7388482;19;20018;-63
2021/09/15 14:27:45;;;;;;;2.05;1.00;;;;;;;;;;7389202;19;20006;-61
2021/09/15 14:30:16;;;;;;;2.13;1.25;;;;;;;;;;7391132;19;20007;-64
2021/09/15 14:32:46;;;;;;;3.00;1.20;;;;;;;;;;7389836;19;20013;-61
2021/09/15 14:35:15;;;;;;;2.55;1.25;;;;;;;;;;7389112;19;20086;-63
2021/09/15 14:37:42;;;;;;;181.55;82.53;;;;;;;;;;7387694;19;20411;-61
2021/09/15 14:40:11;;;;;;;9.05;3.78;;;;;;;;;;7385062;19;20081;-61
2021/09/15 14:42:39;;;;;;;2.33;1.40;;;;;;;;;;7386837;19;20089;-61
2021/09/15 14:45:07;;;;;;;5.03;1.10;;;;;;;;;;7386867;19;20018;-61
2021/09/15 14:47:35;;;;;;;2.60;1.13;;;;;;;;;;7387768;19;20018;-63
2021/09/15 14:50:05;;;;;;;4.95;1.20;;;;;;;;;;7387662;19;20019;-61
2021/09/15 14:52:33;;;;;;;1.00;0.75;;;;;;;;;;7391735;19;20014;-60
2021/09/15 14:55:02;;;;;;;3.42;1.10;;;;;;;;;;7387367;19;20018;-63
2021/09/15 14:57:34;;;;;;;4.63;1.13;;;;;;;;;;7388209;19;20018;-62
2021/09/15 15:01:04;;;;;;;4.18;1.73;;;;;;;;;;7379963;19;20514;-60
2021/09/15 15:04:00;;;;;;;2.45;1.10;;;;;;;;;;7392992;19;20027;-61
2021/09/15 15:07:21;;;;;;;5.18;1.42;;;;;;;;;;7392976;19;20017;-71
2021/09/15 15:10:37;;;;;;;12.63;4.60;;;;;;;;;;7390716;19;20393;-59
2021/09/15 15:13:15;;;;;;;5.60;2.97;;;;;;;;;;7393165;19;20028;-62
2021/09/15 15:15:42;;;;;;;1.95;1.40;;;;;;;;;;7394416;19;20101;-61
2021/09/15 15:18:10;;;;;;;2.80;1.73;;;;;;;;;;7392257;19;20074;-61
2021/09/15 15:20:37;;;;;;;2.03;1.10;;;;;;;;;;7391192;19;20021;-61
2021/09/15 15:23:05;;;;;;;1.70;1.20;;;;;;;;;;7394417;19;20027;-62